PDT,Max TemperatureF,Mean TemperatureF,Min TemperatureF,Max Dew PointF,MeanDew PointF,Min DewpointF,Max Humidity, Mean Humidity, Min Humidity, Max Sea Level PressureIn, Mean Sea Level PressureIn, Min Sea Level PressureIn, Max VisibilityMiles, Mean VisibilityMiles, Min VisibilityMiles, Max Wind SpeedMPH, Mean Wind SpeedMPH, Max Gust SpeedMPH,PrecipitationIn, CloudCover, Events, WindDirDegrees
2013-10-1,57,52,48,46,43,39,87,74,58,30.13,30.01,29.92,10,10,9,22,12,26,0.01,8,,149
2013-10-2,53,50,48,46,46,45,93,86,72,30.20,30.12,30.08,10,10,6,15,7,18,0.04,8,,137
2013-10-3,57,49,41,46,43,37,93,82,59,30.48,30.38,30.21,10,8,0,8,3,,0.03,5,,338
2013-10-4,64,50,37,48,42,34,93,79,45,30.51,30.45,30.38,10,7,0,7,1,,0.00,5,,260
2013-10-5,66,55,44,52,45,41,93,75,46,30.39,30.29,30.16,10,10,10,10,2,,0.00,3,,309
2013-10-6,75,57,39,50,43,36,93,65,25,30.15,29.99,29.89,10,8,0,20,4,30,0.00,2,,168
2013-10-7,57,54,51,50,48,46,88,80,72,30.03,29.96,29.89,10,10,5,20,12,29,0.41,8,,159
2013-10-8,55,47,39,48,43,36,93,77,54,30.11,30.02,29.97,10,9,1,14,5,18,0.04,5,,300
2013-10-9,59,46,32,45,39,28,93,80,55,30.16,30.09,29.98,10,7,0,6,1,,0.00,4,,243
2013-10-10,55,48,42,46,44,39,93,83,67,30.09,30.01,29.97,10,9,0,7,1,,0.00,7,,296
2013-10-11,55,47,39,48,43,37,93,85,72,30.16,30.13,30.09,10,8,0,7,1,,0.00,8,,314
2013-10-12,55,47,39,46,44,36,93,83,67,30.24,30.14,30.09,10,8,1,14,2,,0.00,5,,308
2013-10-13,57,47,37,46,41,36,93,85,63,30.39,30.32,30.25,10,7,0,6,1,,0.00,6,,312
2013-10-14,57,44,32,45,38,28,93,83,63,30.45,30.42,30.39,10,5,0,7,1,,0.00,3,,307
2013-10-15,60,46,33,48,40,30,100,82,55,30.41,30.32,30.20,10,7,0,9,1,,0.00,3,,322
2013-10-16,55,48,41,46,44,37,93,87,72,30.23,30.20,30.18,9,5,0,8,2,,0.00,8,,304
2013-10-17,59,50,42,48,44,39,93,83,67,30.30,30.26,30.23,10,8,0,8,2,,0.00,5,,326
2013-10-18,57,47,37,48,41,36,100,88,72,30.28,30.23,30.17,10,3,0,8,1,,0.00,5,,323
2013-10-19,48,44,41,45,42,37,93,90,87,30.22,30.19,30.17,5,2,0,7,2,,0.00,8,,329
2013-10-20,48,47,46,45,44,43,93,89,87,30.23,30.21,30.18,10,6,2,6,2,,0.00,8,,358
2013-10-21,51,48,44,46,45,43,93,90,82,30.20,30.17,30.13,10,4,0,6,3,,0.00,8,,3
2013-10-22,50,47,44,46,45,43,100,92,87,30.15,30.11,30.06,7,1,0,6,3,,0.00,8,,1
2013-10-23,59,49,39,52,44,37,93,88,67,30.08,30.04,30.00,10,4,0,6,1,,0.00,5,,325
2013-10-24,53,46,39,48,42,37,93,91,82,30.15,30.08,30.05,10,2,0,9,2,,0.00,7,,347
2013-10-25,51,48,46,46,45,43,93,88,76,30.35,30.27,30.15,10,8,1,7,2,,0.00,8,,152
2013-10-26,51,48,46,45,44,41,93,82,71,30.36,30.31,30.22,10,10,7,9,3,,0.00,8,,347
2013-10-27,57,48,39,46,43,36,100,81,63,30.21,29.99,29.92,10,9,3,17,6,25,0.01,5,,283
2013-10-28,60,46,33,37,33,28,93,62,36,29.98,29.94,29.90,10,10,8,16,5,20,0.00,0,,360
2013-10-29,57,42,28,39,32,25,93,76,41,30.06,30.02,29.98,10,10,4,6,1,,0.00,0,,208
2013-10-30,55,42,30,45,37,27,93,77,58,30.15,30.12,30.06,10,10,3,16,3,24,0.00,5,,142
2013-10-31,51,50,48,48,46,41,94,87,71,30.28,30.19,30.11,10,7,1,15,8,20,0.00,8,,139